createdAt,value
2017-11-30T00:00:39.179Z,30.07
2017-11-30T00:03:06.838Z,31.60
2017-11-30T00:05:34.579Z,29.20
2017-11-30T00:08:02.171Z,30.37
2017-11-30T00:10:29.807Z,34.23
2017-11-30T00:12:57.388Z,30.00
2017-11-30T00:15:25.080Z,31.20
2017-11-30T00:17:52.799Z,31.63
2017-11-30T00:20:20.452Z,31.43
2017-11-30T00:22:48.105Z,32.70
2017-11-30T00:25:15.849Z,30.97
2017-11-30T00:27:43.580Z,33.30
2017-11-30T00:30:11.269Z,39.43
2017-11-30T00:32:38.914Z,32.53
2017-11-30T00:35:06.580Z,38.53
2017-11-30T00:37:34.268Z,37.70
2017-11-30T00:40:01.920Z,36.27
2017-11-30T00:42:41.572Z,35.57
2017-11-30T00:45:09.236Z,35.30
2017-11-30T00:47:36.916Z,29.77
2017-11-30T00:50:04.576Z,34.50
2017-11-30T00:52:32.264Z,34.83
2017-11-30T00:54:59.917Z,39.90
2017-11-30T00:57:27.624Z,33.40
2017-11-30T00:59:55.352Z,36.00
2017-11-30T01:02:22.987Z,33.57
2017-11-30T01:04:50.639Z,36.00
2017-11-30T01:07:18.352Z,33.43
2017-11-30T01:09:46.009Z,36.80
2017-11-30T01:12:13.709Z,36.20
2017-11-30T01:14:41.362Z,33.10
2017-11-30T01:17:09.080Z,30.77
2017-11-30T01:19:36.745Z,36.23
2017-11-30T01:22:04.350Z,32.20
2017-11-30T01:24:32.055Z,34.50
2017-11-30T01:26:59.720Z,36.00
2017-11-30T01:29:27.423Z,33.00
2017-11-30T01:31:55.073Z,41.00
2017-11-30T01:34:22.768Z,36.63
2017-11-30T01:36:50.413Z,39.07
2017-11-30T01:39:18.104Z,38.87
2017-11-30T01:41:45.760Z,37.37
2017-11-30T01:44:13.455Z,37.03
2017-11-30T01:46:41.106Z,36.03
2017-11-30T01:49:08.817Z,33.60
2017-11-30T01:51:36.466Z,34.90
2017-11-30T01:54:04.173Z,35.70
2017-11-30T01:56:31.867Z,37.10
2017-11-30T01:58:59.601Z,37.87
2017-11-30T02:01:27.281Z,34.27
2017-11-30T02:03:55.013Z,34.63
2017-11-30T02:06:22.671Z,42.23
2017-11-30T02:08:50.329Z,34.47
2017-11-30T02:11:18.038Z,39.13
2017-11-30T02:13:45.688Z,39.53
2017-11-30T02:16:13.372Z,38.50
2017-11-30T02:18:41.031Z,43.60
2017-11-30T02:21:08.736Z,42.03
2017-11-30T02:23:36.536Z,42.00
2017-11-30T02:26:04.268Z,41.97
2017-11-30T02:28:31.998Z,41.73
2017-11-30T02:30:59.750Z,40.83
2017-11-30T02:33:27.473Z,36.10
2017-11-30T02:35:55.155Z,37.97
2017-11-30T02:38:22.876Z,40.93
2017-11-30T02:40:50.654Z,41.90
2017-11-30T02:43:18.396Z,37.73
2017-11-30T02:45:46.182Z,42.77
2017-11-30T02:48:13.919Z,37.97
2017-11-30T02:50:41.673Z,36.23
2017-11-30T02:53:09.406Z,41.60
2017-11-30T02:55:37.179Z,38.43
2017-11-30T02:58:04.908Z,40.30
2017-11-30T03:00:32.658Z,38.90
2017-11-30T03:03:00.375Z,42.60
2017-11-30T03:05:28.109Z,42.00
2017-11-30T03:07:55.802Z,40.10
2017-11-30T03:10:23.558Z,47.27
2017-11-30T03:12:51.265Z,42.57
2017-11-30T03:15:19.005Z,38.07
2017-11-30T03:17:46.722Z,42.50
2017-11-30T03:20:14.455Z,39.43
2017-11-30T03:22:42.154Z,42.50
2017-11-30T03:25:09.902Z,45.70
2017-11-30T03:27:37.610Z,39.40
2017-11-30T03:30:05.384Z,51.80
2017-11-30T03:32:33.079Z,40.93
2017-11-30T03:35:00.891Z,44.13
2017-11-30T03:37:28.576Z,43.30
2017-11-30T03:39:56.314Z,46.67
2017-11-30T03:42:24.005Z,46.23
2017-11-30T03:44:51.707Z,45.97
2017-11-30T03:47:19.449Z,46.27
2017-11-30T03:49:47.142Z,41.50
2017-11-30T03:52:14.912Z,42.60
2017-11-30T03:54:42.607Z,43.07
2017-11-30T03:57:10.371Z,41.00
2017-11-30T03:59:37.995Z,40.90
2017-11-30T04:02:05.762Z,45.70
2017-11-30T04:04:33.480Z,42.43
2017-11-30T04:07:01.221Z,47.57
2017-11-30T04:09:28.913Z,46.73
2017-11-30T04:11:56.681Z,47.43
2017-11-30T04:14:24.388Z,46.23
2017-11-30T04:16:52.104Z,45.17
2017-11-30T04:19:19.806Z,38.03
2017-11-30T04:21:47.536Z,39.90
2017-11-30T04:24:15.243Z,41.37
2017-11-30T04:26:42.997Z,51.67
2017-11-30T04:29:10.701Z,44.00
2017-11-30T04:31:38.437Z,45.30
2017-11-30T04:34:06.137Z,43.63
2017-11-30T04:36:33.956Z,43.37
2017-11-30T04:39:01.666Z,39.50
2017-11-30T04:41:29.421Z,42.23
2017-11-30T04:43:57.110Z,45.77
2017-11-30T04:46:24.901Z,47.30
2017-11-30T04:48:52.646Z,45.70
2017-11-30T04:51:20.409Z,42.90
2017-11-30T04:53:48.105Z,47.57
2017-11-30T04:56:15.784Z,43.70
2017-11-30T04:58:43.483Z,45.93
2017-11-30T05:01:11.246Z,49.63
2017-11-30T05:03:38.909Z,52.53
2017-11-30T05:06:06.679Z,49.83
2017-11-30T05:08:34.378Z,47.90
2017-11-30T05:11:02.107Z,44.17
2017-11-30T05:13:29.815Z,47.57
2017-11-30T05:15:57.616Z,48.13
2017-11-30T05:18:25.306Z,53.70
2017-11-30T05:20:53.042Z,47.23
2017-11-30T05:23:20.766Z,41.90
2017-11-30T05:25:48.482Z,50.53
2017-11-30T05:28:16.247Z,47.43
2017-11-30T05:30:43.946Z,44.50
2017-11-30T05:33:11.685Z,43.27
2017-11-30T05:35:39.413Z,51.07
2017-11-30T05:38:07.160Z,46.40
2017-11-30T05:40:34.902Z,45.53
2017-11-30T05:43:02.583Z,44.90
2017-11-30T05:45:30.290Z,41.67
2017-11-30T05:47:58.044Z,43.47
2017-11-30T05:50:25.666Z,84.00
2017-11-30T05:52:53.423Z,119.60
2017-11-30T05:55:21.146Z,176.40
2017-11-30T05:57:48.905Z,188.80
2017-11-30T06:00:16.607Z,299.53
2017-11-30T06:02:44.471Z,476.80
2017-11-30T06:05:12.191Z,373.30
2017-11-30T06:07:39.966Z,154.90
2017-11-30T06:10:07.666Z,76.37
2017-11-30T06:12:35.351Z,49.90
2017-11-30T06:15:02.988Z,52.57
2017-11-30T06:17:30.660Z,51.83
2017-11-30T06:19:58.302Z,44.23
2017-11-30T06:22:25.990Z,52.40
2017-11-30T06:24:53.649Z,63.97
2017-11-30T06:27:21.315Z,54.77
2017-11-30T06:29:49.043Z,48.73
2017-11-30T06:32:16.781Z,56.60
2017-11-30T06:34:44.698Z,45.07
2017-11-30T06:37:12.501Z,47.20
2017-11-30T06:39:40.192Z,40.00
2017-11-30T06:42:07.917Z,39.67
2017-11-30T06:44:35.586Z,36.57
2017-11-30T06:47:03.394Z,38.87
2017-11-30T06:49:31.054Z,45.03
2017-11-30T06:51:58.786Z,44.93
2017-11-30T06:54:26.476Z,36.53
2017-11-30T06:56:54.349Z,42.03
2017-11-30T06:59:22.061Z,48.20
2017-11-30T07:01:49.806Z,41.03
2017-11-30T07:04:17.523Z,36.43
2017-11-30T07:06:45.276Z,44.73
2017-11-30T07:09:12.984Z,45.57
2017-11-30T07:11:40.729Z,40.83
2017-11-30T07:14:08.430Z,43.20
2017-11-30T07:16:36.177Z,48.33
2017-11-30T07:19:03.850Z,45.23
2017-11-30T07:21:31.561Z,44.80
2017-11-30T07:23:59.242Z,48.20
2017-11-30T07:26:26.943Z,39.27
2017-11-30T07:28:54.617Z,47.03
2017-11-30T07:31:22.335Z,49.47
2017-11-30T07:33:50.024Z,57.20
2017-11-30T07:36:17.773Z,49.43
2017-11-30T07:38:45.510Z,54.47
2017-11-30T07:41:13.229Z,50.27
2017-11-30T07:43:40.983Z,54.53
2017-11-30T07:46:08.673Z,48.80
2017-11-30T07:48:36.514Z,51.33
2017-11-30T07:51:04.204Z,56.77
2017-11-30T07:53:31.955Z,53.30
2017-11-30T07:55:59.665Z,55.63
2017-11-30T07:58:27.370Z,51.07
2017-11-30T08:00:55.021Z,47.97
2017-11-30T08:03:22.695Z,54.90
2017-11-30T08:05:50.343Z,50.87
2017-11-30T08:08:18.037Z,60.83
2017-11-30T08:10:45.660Z,47.10
2017-11-30T08:13:13.401Z,55.73
2017-11-30T08:15:41.130Z,54.70
2017-11-30T08:18:08.926Z,55.27
2017-11-30T08:20:36.634Z,56.53
2017-11-30T08:23:04.424Z,56.07
2017-11-30T08:25:32.076Z,49.90
2017-11-30T08:27:59.918Z,50.20
2017-11-30T08:30:27.641Z,50.17
2017-11-30T08:32:55.417Z,51.20
2017-11-30T08:35:23.193Z,51.07
2017-11-30T08:37:50.922Z,49.97
2017-11-30T08:40:18.562Z,53.77
2017-11-30T08:42:46.600Z,50.60
2017-11-30T08:45:14.337Z,51.47
2017-11-30T08:47:42.155Z,48.20
2017-11-30T08:50:09.869Z,47.40
2017-11-30T08:52:37.650Z,47.43
2017-11-30T08:55:05.359Z,41.70
2017-11-30T08:57:33.129Z,48.50
2017-11-30T09:00:00.828Z,59.30
2017-11-30T09:02:28.607Z,46.80
2017-11-30T09:04:56.261Z,45.93
2017-11-30T09:07:23.948Z,47.60
2017-11-30T09:09:51.648Z,51.33
2017-11-30T09:12:19.361Z,51.53
2017-11-30T09:14:47.135Z,49.40
2017-11-30T09:17:14.842Z,49.97
2017-11-30T09:19:42.584Z,47.47
2017-11-30T09:22:10.216Z,53.80
2017-11-30T09:24:37.908Z,51.50
2017-11-30T09:27:06.423Z,50.73
2017-11-30T09:29:34.179Z,51.43
2017-11-30T09:32:01.880Z,49.37
2017-11-30T09:34:29.622Z,52.67
2017-11-30T09:36:57.400Z,56.10
2017-11-30T09:39:25.186Z,70.97
2017-11-30T09:41:52.891Z,235.83
2017-11-30T09:44:20.639Z,69.43
2017-11-30T09:46:48.383Z,86.63
2017-11-30T09:49:16.154Z,81.07
2017-11-30T09:51:43.896Z,62.80
2017-11-30T09:54:11.680Z,60.07
2017-11-30T09:56:39.414Z,56.17
2017-11-30T09:59:07.185Z,53.73
2017-11-30T10:01:34.862Z,59.20
2017-11-30T10:04:02.589Z,55.00
2017-11-30T10:06:30.277Z,65.03
2017-11-30T10:08:57.995Z,59.30
2017-11-30T10:11:25.642Z,53.63
2017-11-30T10:13:53.316Z,52.70
2017-11-30T10:16:20.950Z,59.23
2017-11-30T10:18:48.742Z,62.20
2017-11-30T10:21:16.373Z,57.13
2017-11-30T10:23:44.095Z,58.47
2017-11-30T10:26:11.811Z,57.30
2017-11-30T10:28:39.498Z,54.10
2017-11-30T10:31:07.166Z,60.47
2017-11-30T10:33:34.877Z,53.87
2017-11-30T10:36:02.580Z,59.10
2017-11-30T10:38:30.269Z,57.90
2017-11-30T10:40:57.985Z,58.60
2017-11-30T10:43:25.679Z,53.33
2017-11-30T10:45:53.366Z,142.77
2017-11-30T10:48:21.118Z,79.53
2017-11-30T10:50:48.795Z,98.90
2017-11-30T10:53:16.505Z,77.27
2017-11-30T10:55:44.202Z,62.17
2017-11-30T10:58:11.908Z,54.70
2017-11-30T11:00:39.668Z,47.50
2017-11-30T11:03:07.380Z,46.27
2017-11-30T11:05:35.172Z,56.00
2017-11-30T11:08:02.878Z,49.70
2017-11-30T11:10:30.629Z,55.17
2017-11-30T11:12:58.282Z,47.47
2017-11-30T11:15:26.055Z,48.63
2017-11-30T11:17:53.797Z,51.20
2017-11-30T11:20:21.472Z,50.63
2017-11-30T11:22:49.171Z,45.73
2017-11-30T11:25:16.924Z,45.87
2017-11-30T11:27:44.623Z,47.93
2017-11-30T11:30:12.383Z,49.07
2017-11-30T11:32:40.110Z,49.03
2017-11-30T11:35:07.852Z,44.50
2017-11-30T11:37:35.853Z,52.20
2017-11-30T11:40:03.624Z,55.83
2017-11-30T11:42:31.294Z,56.60
2017-11-30T11:44:59.051Z,62.43
2017-11-30T11:47:26.772Z,50.93
2017-11-30T11:49:54.490Z,55.00
2017-11-30T11:52:22.155Z,54.37
2017-11-30T11:54:49.857Z,45.20
2017-11-30T11:57:17.576Z,52.13
2017-11-30T11:59:45.332Z,50.07
2017-11-30T12:02:13.151Z,54.07
2017-11-30T12:04:40.905Z,47.97
2017-11-30T12:07:08.545Z,44.20
2017-11-30T12:09:36.273Z,44.40
2017-11-30T12:12:03.904Z,43.40
2017-11-30T12:14:31.607Z,48.00
2017-11-30T12:16:59.249Z,38.33
2017-11-30T12:19:26.937Z,46.53
2017-11-30T12:21:54.559Z,48.03
2017-11-30T12:24:22.286Z,43.80
2017-11-30T12:26:49.915Z,45.80
2017-11-30T12:29:17.707Z,40.10
2017-11-30T12:31:45.301Z,42.90
2017-11-30T12:34:13.277Z,38.00
2017-11-30T12:36:42.474Z,38.90
2017-11-30T12:42:14.532Z,42.60
2017-11-30T12:44:42.247Z,38.87
2017-11-30T12:47:09.886Z,38.27
2017-11-30T12:49:37.563Z,37.33
2017-11-30T12:52:05.214Z,29.60
2017-11-30T12:54:32.953Z,32.23
2017-11-30T12:57:00.658Z,30.47
2017-11-30T12:59:28.344Z,30.87
2017-11-30T13:01:56.031Z,31.27
2017-11-30T13:04:23.718Z,31.27
2017-11-30T13:06:51.568Z,33.37
2017-11-30T13:09:22.216Z,36.07
2017-11-30T13:11:49.898Z,248.67
2017-11-30T13:14:17.565Z,39.13
2017-11-30T13:16:45.322Z,48.37
2017-11-30T13:19:12.970Z,39.60
2017-11-30T13:21:40.714Z,158.53
2017-11-30T13:24:08.962Z,32.40
2017-11-30T13:26:36.753Z,36.50
2017-11-30T13:29:04.502Z,33.33
2017-11-30T13:31:32.249Z,29.33
2017-11-30T13:33:59.939Z,28.83
2017-11-30T13:36:27.643Z,32.00
2017-11-30T13:38:55.292Z,30.87
2017-11-30T13:41:23.024Z,29.33
2017-11-30T13:43:50.649Z,32.80
2017-11-30T13:46:18.396Z,33.03
2017-11-30T13:48:46.058Z,33.80
2017-11-30T13:51:13.810Z,37.33
2017-11-30T13:53:41.521Z,38.80
2017-11-30T13:56:09.192Z,37.70
2017-11-30T13:58:36.891Z,39.03
2017-11-30T14:01:04.632Z,40.60
2017-11-30T14:03:32.280Z,31.43
2017-11-30T14:05:59.963Z,29.77
2017-11-30T14:08:27.656Z,28.40
2017-11-30T14:10:55.340Z,29.20
2017-11-30T14:13:22.998Z,24.70
2017-11-30T14:15:50.758Z,27.33
2017-11-30T14:18:18.398Z,28.43
2017-11-30T14:20:46.060Z,29.80
2017-11-30T14:23:13.950Z,25.93
2017-11-30T14:25:41.705Z,27.00
2017-11-30T14:28:09.393Z,27.70
2017-11-30T14:30:37.143Z,25.90
2017-11-30T14:33:04.785Z,24.93
2017-11-30T14:35:32.477Z,27.87
2017-11-30T14:38:00.101Z,28.90
2017-11-30T14:40:27.787Z,26.87
2017-11-30T14:42:55.422Z,26.73
2017-11-30T14:45:23.181Z,29.17
2017-11-30T14:47:50.807Z,26.17
2017-11-30T14:50:18.589Z,25.70
2017-11-30T14:52:46.224Z,25.43
2017-11-30T14:55:13.991Z,28.67
2017-11-30T14:57:41.758Z,27.60
2017-11-30T15:00:09.571Z,26.50
2017-11-30T15:02:37.280Z,29.87
2017-11-30T15:05:04.914Z,27.03
2017-11-30T15:07:32.650Z,26.33
2017-11-30T15:10:00.312Z,28.10
2017-11-30T15:12:28.024Z,24.80
2017-11-30T15:14:55.955Z,24.60
2017-11-30T15:17:23.688Z,25.90
2017-11-30T15:19:51.382Z,27.03
2017-11-30T15:22:19.059Z,25.90
2017-11-30T15:24:46.690Z,24.43
2017-11-30T15:27:14.386Z,25.00
2017-11-30T15:29:42.663Z,22.63
2017-11-30T15:32:10.364Z,25.20
2017-11-30T15:34:38.937Z,38.93
2017-11-30T15:37:06.729Z,30.00
2017-11-30T15:39:34.455Z,52.87
2017-11-30T15:42:02.216Z,41.37
2017-11-30T15:44:29.839Z,26.57
2017-11-30T15:46:57.519Z,26.00
2017-11-30T15:49:25.140Z,26.27
2017-11-30T15:51:52.883Z,23.07
2017-11-30T15:54:20.589Z,21.60
2017-11-30T15:56:48.292Z,25.00
2017-11-30T15:59:16.002Z,21.80
2017-11-30T16:01:43.672Z,20.60
2017-11-30T16:04:11.306Z,20.53
2017-11-30T16:06:39.064Z,21.50
2017-11-30T16:09:06.697Z,21.13
2017-11-30T16:11:34.535Z,23.10
2017-11-30T16:14:02.229Z,17.80
2017-11-30T16:16:29.958Z,23.90
2017-11-30T16:18:57.598Z,23.77
2017-11-30T16:21:25.363Z,25.17
2017-11-30T16:23:52.994Z,23.10
2017-11-30T16:26:20.836Z,24.30
2017-11-30T16:28:48.522Z,25.27
2017-11-30T16:31:16.288Z,22.87
2017-11-30T16:33:43.924Z,20.83
2017-11-30T16:36:11.611Z,23.30
2017-11-30T16:38:39.231Z,21.00
2017-11-30T16:41:07.282Z,24.30
2017-11-30T16:43:35.054Z,23.10
2017-11-30T16:46:02.829Z,24.27
2017-11-30T16:48:30.532Z,24.50
2017-11-30T16:50:58.361Z,20.17
2017-11-30T16:53:26.107Z,20.30
2017-11-30T16:55:53.930Z,23.33
2017-11-30T16:58:21.649Z,24.20
2017-11-30T17:00:49.417Z,24.10
2017-11-30T17:03:17.207Z,20.17
2017-11-30T17:05:45.010Z,22.43
2017-11-30T17:08:13.348Z,20.30
2017-11-30T17:10:42.120Z,24.30
2017-11-30T17:13:10.145Z,22.30
2017-11-30T17:15:37.999Z,22.40
2017-11-30T17:18:05.786Z,24.10
2017-11-30T17:20:34.554Z,25.57
2017-11-30T17:23:02.450Z,23.13
2017-11-30T17:25:30.131Z,26.00
2017-11-30T17:27:57.866Z,27.50
2017-11-30T17:30:25.536Z,24.67
2017-11-30T17:32:53.453Z,21.27
2017-11-30T17:35:21.174Z,24.07
2017-11-30T17:37:48.859Z,26.00
2017-11-30T17:40:16.797Z,25.37
2017-11-30T17:42:44.643Z,23.47
2017-11-30T17:45:12.577Z,27.50
2017-11-30T17:47:40.390Z,31.60
2017-11-30T17:50:08.153Z,30.17
2017-11-30T17:52:35.883Z,23.47
2017-11-30T17:55:03.657Z,21.93
2017-11-30T17:57:31.398Z,21.80
2017-11-30T17:59:59.156Z,22.23
2017-11-30T18:02:26.987Z,23.87
2017-11-30T18:04:54.769Z,22.40
2017-11-30T18:07:22.470Z,24.67
2017-11-30T18:09:50.133Z,28.97
2017-11-30T18:12:17.855Z,24.90
2017-11-30T18:14:45.526Z,28.50
2017-11-30T18:17:13.314Z,30.67
2017-11-30T18:19:40.971Z,26.97
2017-11-30T18:22:08.677Z,26.70
2017-11-30T18:24:36.342Z,29.20
2017-11-30T18:27:04.068Z,28.50
2017-11-30T18:29:31.730Z,30.20
2017-11-30T18:31:59.424Z,32.03
2017-11-30T18:34:27.388Z,32.87
2017-11-30T18:36:56.276Z,32.30
2017-11-30T18:39:24.596Z,33.70
2017-11-30T18:41:52.779Z,27.10
2017-11-30T18:44:20.480Z,27.23
2017-11-30T18:46:48.197Z,28.30
2017-11-30T18:49:15.868Z,28.10
2017-11-30T18:51:43.788Z,28.93
2017-11-30T18:54:11.516Z,27.70
2017-11-30T18:56:39.263Z,28.20
2017-11-30T18:59:06.965Z,26.23
2017-11-30T19:01:34.624Z,26.37
2017-11-30T19:04:02.310Z,24.23
2017-11-30T19:06:29.951Z,26.27
2017-11-30T19:08:57.628Z,27.80
2017-11-30T19:11:25.428Z,29.40
2017-11-30T19:13:53.225Z,26.50
2017-11-30T19:16:22.863Z,27.23
2017-11-30T19:18:50.656Z,25.97
2017-11-30T19:21:18.419Z,29.40
2017-11-30T19:23:46.107Z,29.33
2017-11-30T19:26:13.759Z,26.73
2017-11-30T19:28:41.437Z,27.43
2017-11-30T19:31:09.139Z,30.53
2017-11-30T19:33:36.826Z,27.83
2017-11-30T19:36:04.467Z,26.90
2017-11-30T19:38:32.158Z,23.40
2017-11-30T19:40:59.791Z,24.30
2017-11-30T19:43:27.501Z,25.83
2017-11-30T19:45:55.136Z,23.13
2017-11-30T19:48:22.916Z,20.50
2017-11-30T19:50:50.619Z,22.87
2017-11-30T19:53:18.311Z,21.03
2017-11-30T19:55:45.957Z,18.93
2017-11-30T19:58:13.658Z,22.07
2017-11-30T20:00:41.312Z,21.97
2017-11-30T20:03:09.002Z,24.90
2017-11-30T20:05:36.640Z,23.50
2017-11-30T20:08:04.705Z,22.47
2017-11-30T20:10:32.547Z,20.50
2017-11-30T20:13:00.503Z,23.57
2017-11-30T20:15:28.328Z,24.37
2017-11-30T20:17:56.132Z,23.07
2017-11-30T20:20:23.883Z,25.20
2017-11-30T20:22:51.697Z,22.63
2017-11-30T20:25:19.409Z,26.23
2017-11-30T20:27:47.272Z,26.00
2017-11-30T20:30:15.067Z,25.10
2017-11-30T20:32:43.032Z,23.80
2017-11-30T20:35:10.833Z,25.23
2017-11-30T20:37:39.397Z,27.27
2017-11-30T20:40:09.789Z,24.73
2017-11-30T20:42:37.746Z,23.00
2017-11-30T20:45:06.984Z,23.63
2017-11-30T20:47:36.011Z,25.73
2017-11-30T20:50:04.951Z,22.20
2017-11-30T20:52:38.897Z,23.57
2017-11-30T20:55:14.172Z,25.33
2017-11-30T20:57:49.084Z,26.20
2017-11-30T21:00:24.359Z,24.60
2017-11-30T21:02:59.345Z,26.57
2017-11-30T21:05:33.774Z,24.30
2017-11-30T21:08:09.118Z,27.20
2017-11-30T21:10:41.164Z,25.90
2017-11-30T21:13:14.855Z,22.63
2017-11-30T21:15:47.663Z,30.27
2017-11-30T21:18:19.225Z,21.97
2017-11-30T21:20:50.879Z,24.87
2017-11-30T21:28:37.446Z,23.50
2017-11-30T21:31:13.385Z,24.33
2017-11-30T21:33:59.318Z,25.27
2017-11-30T21:36:33.915Z,19.63
2017-11-30T21:39:07.624Z,18.57
2017-11-30T21:41:40.645Z,20.47
2017-11-30T21:44:14.794Z,19.67
2017-11-30T21:46:49.268Z,22.10
2017-11-30T21:49:22.776Z,23.13
2017-11-30T21:51:57.497Z,24.17
2017-11-30T21:54:36.770Z,21.87
2017-11-30T21:57:09.241Z,24.67
2017-11-30T21:59:44.555Z,24.10
2017-11-30T22:02:17.901Z,24.70
2017-11-30T22:07:27.789Z,25.50
2017-11-30T22:10:00.463Z,24.80
2017-11-30T22:12:36.873Z,24.80
2017-11-30T22:15:10.404Z,21.60
2017-11-30T22:17:45.616Z,26.07
2017-11-30T22:20:20.925Z,26.10
2017-11-30T22:22:48.983Z,26.93
2017-11-30T22:25:17.672Z,21.97
2017-11-30T22:27:49.031Z,24.40
2017-11-30T22:30:18.641Z,22.03
2017-11-30T22:32:46.335Z,21.00
2017-11-30T22:35:14.056Z,21.00
2017-11-30T22:37:41.737Z,20.60
2017-11-30T22:40:09.382Z,22.87
2017-11-30T22:42:37.758Z,22.90
2017-11-30T22:45:05.639Z,21.60
2017-11-30T22:47:33.648Z,24.83
2017-11-30T22:50:01.693Z,20.80
2017-11-30T22:52:29.728Z,23.43
2017-11-30T22:54:57.469Z,25.47
2017-11-30T22:57:25.280Z,21.53
2017-11-30T22:59:52.971Z,20.33
2017-11-30T23:02:20.791Z,21.70
2017-11-30T23:04:48.498Z,28.87
2017-11-30T23:07:16.253Z,23.67
2017-11-30T23:09:45.739Z,20.87
2017-11-30T23:12:15.380Z,22.10
2017-11-30T23:14:45.225Z,22.10
2017-11-30T23:17:13.662Z,18.87
2017-11-30T23:19:41.969Z,21.73
2017-11-30T23:22:10.168Z,21.77
2017-11-30T23:24:37.975Z,24.47
2017-11-30T23:27:05.704Z,24.77
2017-11-30T23:29:33.476Z,23.60
2017-11-30T23:32:01.109Z,23.50
2017-11-30T23:34:28.908Z,21.07
2017-11-30T23:36:56.596Z,22.97
2017-11-30T23:39:24.265Z,21.90
2017-11-30T23:41:51.973Z,18.70
2017-11-30T23:44:19.771Z,20.73
2017-11-30T23:46:47.461Z,21.60
2017-11-30T23:49:15.209Z,26.40
2017-11-30T23:51:42.867Z,21.73
2017-11-30T23:54:10.617Z,22.80
2017-11-30T23:56:38.271Z,24.27
2017-11-30T23:59:06.005Z,22.73
